sensor_id;sensor_type;location;lat;lon;timestamp;P1;durP1;ratioP1;P2;durP2;ratioP2
68886;SDS011;55925;51.764;6.402;2023-10-19T00:01:13;20.95;;;11.48;;
68886;SDS011;55925;51.764;6.402;2023-10-19T00:03:41;29.38;;;12.05;;
68886;SDS011;55925;51.764;6.402;2023-10-19T00:06:09;27.25;;;11.77;;
68886;SDS011;55925;51.764;6.402;2023-10-19T00:08:35;24.08;;;11.55;;
68886;SDS011;55925;51.764;6.402;2023-10-19T00:11:06;25.25;;;12.05;;
68886;SDS011;55925;51.764;6.402;2023-10-19T00:13:32;24.77;;;12.38;;
68886;SDS011;55925;51.764;6.402;2023-10-19T00:16:00;31.17;;;12.75;;
68886;SDS011;55925;51.764;6.402;2023-10-19T00:20:59;24.48;;;10.77;;
68886;SDS011;55925;51.764;6.402;2023-10-19T00:23:44;27.08;;;11.73;;
68886;SDS011;55925;51.764;6.402;2023-10-19T00:26:12;25.63;;;12.10;;
68886;SDS011;55925;51.764;6.402;2023-10-19T00:28:45;25.23;;;11.55;;
68886;SDS011;55925;51.764;6.402;2023-10-19T00:31:14;24.92;;;12.63;;
68886;SDS011;55925;51.764;6.402;2023-10-19T00:33:40;24.25;;;11.15;;
68886;SDS011;55925;51.764;6.402;2023-10-19T00:36:07;23.50;;;11.43;;
68886;SDS011;55925;51.764;6.402;2023-10-19T00:38:33;24.08;;;11.95;;
68886;SDS011;55925;51.764;6.402;2023-10-19T00:41:03;25.50;;;11.48;;
68886;SDS011;55925;51.764;6.402;2023-10-19T00:43:37;21.85;;;10.77;;
68886;SDS011;55925;51.764;6.402;2023-10-19T00:46:17;24.02;;;10.63;;
68886;SDS011;55925;51.764;6.402;2023-10-19T00:48:57;22.85;;;11.23;;
68886;SDS011;55925;51.764;6.402;2023-10-19T00:51:24;24.45;;;10.63;;
68886;SDS011;55925;51.764;6.402;2023-10-19T00:53:54;23.83;;;11.00;;
68886;SDS011;55925;51.764;6.402;2023-10-19T00:56:21;23.40;;;11.32;;
68886;SDS011;55925;51.764;6.402;2023-10-19T00:58:49;21.05;;;10.25;;
68886;SDS011;55925;51.764;6.402;2023-10-19T01:01:21;29.67;;;12.57;;
68886;SDS011;55925;51.764;6.402;2023-10-19T01:03:49;21.02;;;9.82;;
68886;SDS011;55925;51.764;6.402;2023-10-19T01:08:47;21.10;;;9.85;;
68886;SDS011;55925;51.764;6.402;2023-10-19T01:11:16;25.58;;;11.30;;
68886;SDS011;55925;51.764;6.402;2023-10-19T01:13:45;23.80;;;10.48;;
68886;SDS011;55925;51.764;6.402;2023-10-19T01:16:12;26.42;;;10.10;;
68886;SDS011;55925;51.764;6.402;2023-10-19T01:18:45;22.65;;;10.20;;
68886;SDS011;55925;51.764;6.402;2023-10-19T01:21:12;31.80;;;11.15;;
68886;SDS011;55925;51.764;6.402;2023-10-19T01:23:38;24.35;;;10.85;;
68886;SDS011;55925;51.764;6.402;2023-10-19T01:26:04;26.45;;;12.60;;
68886;SDS011;55925;51.764;6.402;2023-10-19T01:28:34;26.55;;;11.32;;
68886;SDS011;55925;51.764;6.402;2023-10-19T01:31:10;26.65;;;10.65;;
68886;SDS011;55925;51.764;6.402;2023-10-19T01:33:55;24.40;;;11.13;;
68886;SDS011;55925;51.764;6.402;2023-10-19T01:36:31;21.05;;;9.68;;
68886;SDS011;55925;51.764;6.402;2023-10-19T01:39:07;20.15;;;9.80;;
68886;SDS011;55925;51.764;6.402;2023-10-19T01:41:36;21.25;;;10.63;;
68886;SDS011;55925;51.764;6.402;2023-10-19T01:44:04;22.33;;;9.73;;
68886;SDS011;55925;51.764;6.402;2023-10-19T01:46:38;21.13;;;10.27;;
68886;SDS011;55925;51.764;6.402;2023-10-19T01:49:04;21.52;;;10.02;;
68886;SDS011;55925;51.764;6.402;2023-10-19T01:51:33;21.92;;;10.15;;
68886;SDS011;55925;51.764;6.402;2023-10-19T01:56:35;19.05;;;9.95;;
68886;SDS011;55925;51.764;6.402;2023-10-19T01:59:03;24.92;;;10.52;;
68886;SDS011;55925;51.764;6.402;2023-10-19T02:01:29;20.10;;;9.90;;
68886;SDS011;55925;51.764;6.402;2023-10-19T02:04:01;21.10;;;10.15;;
68886;SDS011;55925;51.764;6.402;2023-10-19T02:06:29;18.75;;;9.73;;
68886;SDS011;55925;51.764;6.402;2023-10-19T02:09:11;17.88;;;9.38;;
68886;SDS011;55925;51.764;6.402;2023-10-19T02:14:18;19.35;;;9.68;;
68886;SDS011;55925;51.764;6.402;2023-10-19T02:16:45;20.92;;;10.00;;
68886;SDS011;55925;51.764;6.402;2023-10-19T02:19:21;19.65;;;9.45;;
68886;SDS011;55925;51.764;6.402;2023-10-19T02:21:48;23.63;;;10.32;;
68886;SDS011;55925;51.764;6.402;2023-10-19T02:24:14;20.73;;;9.82;;
68886;SDS011;55925;51.764;6.402;2023-10-19T02:26:41;20.38;;;9.15;;
68886;SDS011;55925;51.764;6.402;2023-10-19T02:29:07;21.00;;;10.02;;
68886;SDS011;55925;51.764;6.402;2023-10-19T02:31:35;20.42;;;10.93;;
68886;SDS011;55925;51.764;6.402;2023-10-19T02:34:05;19.42;;;9.30;;
68886;SDS011;55925;51.764;6.402;2023-10-19T02:36:32;20.25;;;9.65;;
68886;SDS011;55925;51.764;6.402;2023-10-19T02:39:01;22.48;;;9.75;;
68886;SDS011;55925;51.764;6.402;2023-10-19T02:41:35;20.05;;;9.82;;
68886;SDS011;55925;51.764;6.402;2023-10-19T02:44:01;20.67;;;10.15;;
68886;SDS011;55925;51.764;6.402;2023-10-19T02:46:34;21.00;;;9.63;;
68886;SDS011;55925;51.764;6.402;2023-10-19T02:49:03;21.20;;;9.40;;
68886;SDS011;55925;51.764;6.402;2023-10-19T02:51:34;22.65;;;11.05;;
68886;SDS011;55925;51.764;6.402;2023-10-19T02:54:01;18.70;;;9.63;;
68886;SDS011;55925;51.764;6.402;2023-10-19T02:56:28;19.27;;;9.70;;
68886;SDS011;55925;51.764;6.402;2023-10-19T02:58:56;22.42;;;10.13;;
68886;SDS011;55925;51.764;6.402;2023-10-19T03:01:29;19.88;;;10.85;;
68886;SDS011;55925;51.764;6.402;2023-10-19T03:03:59;20.40;;;9.55;;
68886;SDS011;55925;51.764;6.402;2023-10-19T03:06:26;22.27;;;9.07;;
68886;SDS011;55925;51.764;6.402;2023-10-19T03:08:59;20.50;;;9.20;;
68886;SDS011;55925;51.764;6.402;2023-10-19T03:11:42;16.80;;;8.60;;
68886;SDS011;55925;51.764;6.402;2023-10-19T03:14:09;21.58;;;10.05;;
68886;SDS011;55925;51.764;6.402;2023-10-19T03:16:37;18.38;;;8.35;;
68886;SDS011;55925;51.764;6.402;2023-10-19T03:19:06;20.02;;;9.65;;
68886;SDS011;55925;51.764;6.402;2023-10-19T03:21:32;17.92;;;9.10;;
68886;SDS011;55925;51.764;6.402;2023-10-19T03:23:59;21.20;;;9.27;;
68886;SDS011;55925;51.764;6.402;2023-10-19T03:26:38;18.67;;;8.55;;
68886;SDS011;55925;51.764;6.402;2023-10-19T03:29:13;19.90;;;8.70;;
68886;SDS011;55925;51.764;6.402;2023-10-19T03:31:40;18.88;;;8.98;;
68886;SDS011;55925;51.764;6.402;2023-10-19T03:34:11;16.63;;;8.30;;
68886;SDS011;55925;51.764;6.402;2023-10-19T03:36:43;16.13;;;8.85;;
68886;SDS011;55925;51.764;6.402;2023-10-19T03:39:09;17.98;;;8.93;;
68886;SDS011;55925;51.764;6.402;2023-10-19T03:41:40;19.02;;;8.60;;
68886;SDS011;55925;51.764;6.402;2023-10-19T03:44:09;17.88;;;9.05;;
68886;SDS011;55925;51.764;6.402;2023-10-19T03:46:49;18.17;;;8.32;;
68886;SDS011;55925;51.764;6.402;2023-10-19T03:49:22;19.48;;;8.07;;
68886;SDS011;55925;51.764;6.402;2023-10-19T03:51:55;20.15;;;8.40;;
68886;SDS011;55925;51.764;6.402;2023-10-19T03:54:26;16.33;;;8.05;;
68886;SDS011;55925;51.764;6.402;2023-10-19T03:56:52;16.70;;;7.88;;
68886;SDS011;55925;51.764;6.402;2023-10-19T03:59:20;15.60;;;7.00;;
68886;SDS011;55925;51.764;6.402;2023-10-19T04:01:46;16.65;;;7.70;;
68886;SDS011;55925;51.764;6.402;2023-10-19T04:04:13;15.45;;;7.07;;
68886;SDS011;55925;51.764;6.402;2023-10-19T04:06:41;14.88;;;7.43;;
68886;SDS011;55925;51.764;6.402;2023-10-19T04:09:12;14.32;;;6.55;;
68886;SDS011;55925;51.764;6.402;2023-10-19T04:11:42;16.23;;;7.47;;
68886;SDS011;55925;51.764;6.402;2023-10-19T04:14:14;13.55;;;6.57;;
68886;SDS011;55925;51.764;6.402;2023-10-19T04:16:41;14.93;;;7.07;;
68886;SDS011;55925;51.764;6.402;2023-10-19T04:19:11;15.07;;;6.70;;
68886;SDS011;55925;51.764;6.402;2023-10-19T04:21:37;18.40;;;6.18;;
68886;SDS011;55925;51.764;6.402;2023-10-19T04:24:09;13.55;;;6.18;;
68886;SDS011;55925;51.764;6.402;2023-10-19T04:26:35;12.95;;;5.85;;
68886;SDS011;55925;51.764;6.402;2023-10-19T04:29:05;14.80;;;6.18;;
68886;SDS011;55925;51.764;6.402;2023-10-19T04:31:38;12.05;;;5.93;;
68886;SDS011;55925;51.764;6.402;2023-10-19T04:34:19;12.02;;;5.85;;
68886;SDS011;55925;51.764;6.402;2023-10-19T04:36:49;14.32;;;5.72;;
68886;SDS011;55925;51.764;6.402;2023-10-19T04:39:16;14.32;;;6.07;;
68886;SDS011;55925;51.764;6.402;2023-10-19T04:41:45;13.60;;;6.50;;
68886;SDS011;55925;51.764;6.402;2023-10-19T04:44:13;10.07;;;5.25;;
68886;SDS011;55925;51.764;6.402;2023-10-19T04:46:40;13.73;;;6.43;;
68886;SDS011;55925;51.764;6.402;2023-10-19T04:49:06;12.38;;;5.47;;
68886;SDS011;55925;51.764;6.402;2023-10-19T04:51:33;12.10;;;5.90;;
68886;SDS011;55925;51.764;6.402;2023-10-19T04:54:02;9.65;;;4.97;;
68886;SDS011;55925;51.764;6.402;2023-10-19T04:56:28;9.55;;;4.82;;
68886;SDS011;55925;51.764;6.402;2023-10-19T04:58:54;10.05;;;5.22;;
68886;SDS011;55925;51.764;6.402;2023-10-19T05:01:20;12.15;;;5.00;;
68886;SDS011;55925;51.764;6.402;2023-10-19T05:03:46;10.35;;;4.60;;
68886;SDS011;55925;51.764;6.402;2023-10-19T05:06:12;13.45;;;4.60;;
68886;SDS011;55925;51.764;6.402;2023-10-19T05:08:38;10.80;;;5.70;;
68886;SDS011;55925;51.764;6.402;2023-10-19T05:11:05;9.73;;;4.55;;
68886;SDS011;55925;51.764;6.402;2023-10-19T05:13:31;11.00;;;5.63;;
68886;SDS011;55925;51.764;6.402;2023-10-19T05:15:58;11.57;;;4.93;;
68886;SDS011;55925;51.764;6.402;2023-10-19T05:18:25;14.35;;;5.18;;
68886;SDS011;55925;51.764;6.402;2023-10-19T05:20:51;12.30;;;4.82;;
68886;SDS011;55925;51.764;6.402;2023-10-19T05:23:23;11.13;;;4.95;;
68886;SDS011;55925;51.764;6.402;2023-10-19T05:25:50;9.25;;;5.10;;
68886;SDS011;55925;51.764;6.402;2023-10-19T05:28:17;12.55;;;4.93;;
68886;SDS011;55925;51.764;6.402;2023-10-19T05:30:44;12.38;;;5.78;;
68886;SDS011;55925;51.764;6.402;2023-10-19T05:33:10;8.07;;;4.13;;
68886;SDS011;55925;51.764;6.402;2023-10-19T05:35:36;9.80;;;4.60;;
68886;SDS011;55925;51.764;6.402;2023-10-19T05:38:06;13.52;;;5.28;;
68886;SDS011;55925;51.764;6.402;2023-10-19T05:40:32;10.15;;;4.40;;
68886;SDS011;55925;51.764;6.402;2023-10-19T05:42:59;9.60;;;4.43;;
68886;SDS011;55925;51.764;6.402;2023-10-19T05:45:26;11.02;;;6.28;;
68886;SDS011;55925;51.764;6.402;2023-10-19T05:47:53;9.65;;;5.05;;
68886;SDS011;55925;51.764;6.402;2023-10-19T05:50:19;11.43;;;4.13;;
68886;SDS011;55925;51.764;6.402;2023-10-19T05:52:45;10.80;;;4.55;;
68886;SDS011;55925;51.764;6.402;2023-10-19T05:55:12;11.02;;;4.70;;
68886;SDS011;55925;51.764;6.402;2023-10-19T05:57:38;10.30;;;4.38;;
68886;SDS011;55925;51.764;6.402;2023-10-19T06:00:08;9.55;;;4.15;;
68886;SDS011;55925;51.764;6.402;2023-10-19T06:02:39;11.65;;;5.07;;
68886;SDS011;55925;51.764;6.402;2023-10-19T06:05:05;10.57;;;4.53;;
68886;SDS011;55925;51.764;6.402;2023-10-19T06:07:31;10.93;;;4.57;;
68886;SDS011;55925;51.764;6.402;2023-10-19T06:09:57;8.90;;;4.30;;
68886;SDS011;55925;51.764;6.402;2023-10-19T06:12:25;10.60;;;5.05;;
68886;SDS011;55925;51.764;6.402;2023-10-19T06:14:51;10.93;;;4.43;;
68886;SDS011;55925;51.764;6.402;2023-10-19T06:17:17;9.45;;;4.15;;
68886;SDS011;55925;51.764;6.402;2023-10-19T06:19:44;10.23;;;4.72;;
68886;SDS011;55925;51.764;6.402;2023-10-19T06:22:11;11.52;;;5.78;;
68886;SDS011;55925;51.764;6.402;2023-10-19T06:24:37;10.25;;;4.95;;
68886;SDS011;55925;51.764;6.402;2023-10-19T06:27:03;12.98;;;5.45;;
68886;SDS011;55925;51.764;6.402;2023-10-19T06:29:29;11.68;;;5.10;;
68886;SDS011;55925;51.764;6.402;2023-10-19T06:31:55;12.10;;;4.80;;
68886;SDS011;55925;51.764;6.402;2023-10-19T06:34:21;13.05;;;5.57;;
68886;SDS011;55925;51.764;6.402;2023-10-19T06:36:47;13.23;;;5.78;;
68886;SDS011;55925;51.764;6.402;2023-10-19T06:39:15;12.50;;;5.13;;
68886;SDS011;55925;51.764;6.402;2023-10-19T06:41:42;10.80;;;4.85;;
68886;SDS011;55925;51.764;6.402;2023-10-19T06:44:08;9.88;;;4.53;;
68886;SDS011;55925;51.764;6.402;2023-10-19T06:46:36;10.10;;;5.00;;
68886;SDS011;55925;51.764;6.402;2023-10-19T06:49:02;10.57;;;5.13;;
68886;SDS011;55925;51.764;6.402;2023-10-19T06:51:28;12.85;;;5.53;;
68886;SDS011;55925;51.764;6.402;2023-10-19T06:53:54;11.90;;;6.00;;
68886;SDS011;55925;51.764;6.402;2023-10-19T06:56:21;11.90;;;5.50;;
68886;SDS011;55925;51.764;6.402;2023-10-19T06:58:47;11.35;;;5.90;;
68886;SDS011;55925;51.764;6.402;2023-10-19T07:01:13;11.57;;;5.53;;
68886;SDS011;55925;51.764;6.402;2023-10-19T07:03:42;15.25;;;5.30;;
68886;SDS011;55925;51.764;6.402;2023-10-19T07:06:08;11.68;;;5.55;;
68886;SDS011;55925;51.764;6.402;2023-10-19T07:08:38;12.18;;;5.78;;
68886;SDS011;55925;51.764;6.402;2023-10-19T07:11:06;13.55;;;5.47;;
68886;SDS011;55925;51.764;6.402;2023-10-19T07:13:32;10.52;;;5.20;;
68886;SDS011;55925;51.764;6.402;2023-10-19T07:15:58;10.48;;;4.82;;
68886;SDS011;55925;51.764;6.402;2023-10-19T07:18:24;11.68;;;4.90;;
68886;SDS011;55925;51.764;6.402;2023-10-19T07:20:51;10.98;;;4.70;;
68886;SDS011;55925;51.764;6.402;2023-10-19T07:23:25;10.20;;;4.28;;
68886;SDS011;55925;51.764;6.402;2023-10-19T07:25:51;10.52;;;4.75;;
68886;SDS011;55925;51.764;6.402;2023-10-19T07:28:19;9.60;;;3.92;;
68886;SDS011;55925;51.764;6.402;2023-10-19T07:30:47;10.85;;;4.60;;
68886;SDS011;55925;51.764;6.402;2023-10-19T07:33:14;13.52;;;4.63;;
68886;SDS011;55925;51.764;6.402;2023-10-19T07:35:45;10.73;;;4.22;;
68886;SDS011;55925;51.764;6.402;2023-10-19T07:38:14;9.38;;;4.07;;
68886;SDS011;55925;51.764;6.402;2023-10-19T07:40:41;7.50;;;3.97;;
68886;SDS011;55925;51.764;6.402;2023-10-19T07:43:08;10.70;;;3.78;;
68886;SDS011;55925;51.764;6.402;2023-10-19T07:45:35;10.98;;;4.25;;
68886;SDS011;55925;51.764;6.402;2023-10-19T07:48:01;9.45;;;4.45;;
68886;SDS011;55925;51.764;6.402;2023-10-19T07:50:36;10.20;;;3.83;;
68886;SDS011;55925;51.764;6.402;2023-10-19T07:53:02;9.75;;;3.90;;
68886;SDS011;55925;51.764;6.402;2023-10-19T07:55:29;9.65;;;3.55;;
68886;SDS011;55925;51.764;6.402;2023-10-19T07:57:58;9.30;;;3.85;;
68886;SDS011;55925;51.764;6.402;2023-10-19T08:00:25;8.13;;;4.07;;
68886;SDS011;55925;51.764;6.402;2023-10-19T08:02:54;11.15;;;3.60;;
68886;SDS011;55925;51.764;6.402;2023-10-19T08:05:20;7.75;;;3.53;;
68886;SDS011;55925;51.764;6.402;2023-10-19T08:07:46;12.63;;;4.15;;
68886;SDS011;55925;51.764;6.402;2023-10-19T08:10:13;9.55;;;3.35;;
68886;SDS011;55925;51.764;6.402;2023-10-19T08:12:40;11.38;;;3.65;;
68886;SDS011;55925;51.764;6.402;2023-10-19T08:15:07;8.48;;;3.67;;
68886;SDS011;55925;51.764;6.402;2023-10-19T08:17:36;9.95;;;3.47;;
68886;SDS011;55925;51.764;6.402;2023-10-19T08:20:03;9.18;;;3.15;;
68886;SDS011;55925;51.764;6.402;2023-10-19T08:22:33;8.75;;;3.00;;
68886;SDS011;55925;51.764;6.402;2023-10-19T08:25:01;7.80;;;3.20;;
68886;SDS011;55925;51.764;6.402;2023-10-19T08:27:29;9.27;;;3.03;;
68886;SDS011;55925;51.764;6.402;2023-10-19T08:29:55;6.05;;;2.75;;
68886;SDS011;55925;51.764;6.402;2023-10-19T08:32:21;7.20;;;2.78;;
68886;SDS011;55925;51.764;6.402;2023-10-19T08:34:47;10.40;;;2.92;;
68886;SDS011;55925;51.764;6.402;2023-10-19T08:37:13;8.93;;;2.92;;
68886;SDS011;55925;51.764;6.402;2023-10-19T08:39:39;7.55;;;2.58;;
68886;SDS011;55925;51.764;6.402;2023-10-19T08:42:05;6.80;;;2.78;;
68886;SDS011;55925;51.764;6.402;2023-10-19T08:44:32;7.53;;;2.83;;
68886;SDS011;55925;51.764;6.402;2023-10-19T08:46:59;8.32;;;3.28;;
68886;SDS011;55925;51.764;6.402;2023-10-19T08:49:25;15.32;;;3.72;;
68886;SDS011;55925;51.764;6.402;2023-10-19T08:51:52;7.25;;;2.90;;
68886;SDS011;55925;51.764;6.402;2023-10-19T08:54:19;9.75;;;2.78;;
68886;SDS011;55925;51.764;6.402;2023-10-19T08:56:45;8.50;;;3.47;;
68886;SDS011;55925;51.764;6.402;2023-10-19T08:59:12;9.02;;;3.10;;
68886;SDS011;55925;51.764;6.402;2023-10-19T09:01:40;9.80;;;3.50;;
68886;SDS011;55925;51.764;6.402;2023-10-19T09:04:09;10.05;;;3.03;;
68886;SDS011;55925;51.764;6.402;2023-10-19T09:06:36;7.90;;;2.90;;
68886;SDS011;55925;51.764;6.402;2023-10-19T09:09:07;7.97;;;3.00;;
68886;SDS011;55925;51.764;6.402;2023-10-19T09:11:34;8.73;;;3.00;;
68886;SDS011;55925;51.764;6.402;2023-10-19T09:14:00;6.95;;;2.85;;
68886;SDS011;55925;51.764;6.402;2023-10-19T09:16:29;8.50;;;3.33;;
68886;SDS011;55925;51.764;6.402;2023-10-19T09:18:55;6.65;;;2.67;;
68886;SDS011;55925;51.764;6.402;2023-10-19T09:21:21;9.20;;;3.00;;
68886;SDS011;55925;51.764;6.402;2023-10-19T09:23:51;7.35;;;3.15;;
68886;SDS011;55925;51.764;6.402;2023-10-19T09:26:17;7.28;;;2.47;;
68886;SDS011;55925;51.764;6.402;2023-10-19T09:28:46;9.00;;;2.63;;
68886;SDS011;55925;51.764;6.402;2023-10-19T09:31:16;7.55;;;3.00;;
68886;SDS011;55925;51.764;6.402;2023-10-19T09:33:42;8.43;;;2.83;;
68886;SDS011;55925;51.764;6.402;2023-10-19T09:36:09;7.10;;;2.95;;
68886;SDS011;55925;51.764;6.402;2023-10-19T09:38:47;8.75;;;2.88;;
68886;SDS011;55925;51.764;6.402;2023-10-19T09:41:15;6.22;;;2.50;;
68886;SDS011;55925;51.764;6.402;2023-10-19T09:43:43;6.15;;;2.65;;
68886;SDS011;55925;51.764;6.402;2023-10-19T09:46:10;9.40;;;2.78;;
68886;SDS011;55925;51.764;6.402;2023-10-19T09:48:41;6.80;;;2.92;;
68886;SDS011;55925;51.764;6.402;2023-10-19T09:51:07;8.90;;;3.00;;
68886;SDS011;55925;51.764;6.402;2023-10-19T09:53:34;7.15;;;3.50;;
68886;SDS011;55925;51.764;6.402;2023-10-19T09:56:00;8.43;;;3.08;;
68886;SDS011;55925;51.764;6.402;2023-10-19T09:58:31;8.23;;;3.60;;
68886;SDS011;55925;51.764;6.402;2023-10-19T10:01:00;9.90;;;3.97;;
68886;SDS011;55925;51.764;6.402;2023-10-19T10:03:44;9.27;;;4.15;;
68886;SDS011;55925;51.764;6.402;2023-10-19T10:06:10;8.60;;;3.55;;
68886;SDS011;55925;51.764;6.402;2023-10-19T10:08:37;10.55;;;4.40;;
68886;SDS011;55925;51.764;6.402;2023-10-19T10:11:14;7.38;;;3.35;;
68886;SDS011;55925;51.764;6.402;2023-10-19T10:16:07;9.38;;;3.80;;
68886;SDS011;55925;51.764;6.402;2023-10-19T10:18:34;8.38;;;3.65;;
68886;SDS011;55925;51.764;6.402;2023-10-19T10:23:35;10.77;;;4.13;;
68886;SDS011;55925;51.764;6.402;2023-10-19T10:26:05;8.38;;;3.80;;
68886;SDS011;55925;51.764;6.402;2023-10-19T10:28:33;17.65;;;4.00;;
68886;SDS011;55925;51.764;6.402;2023-10-19T10:31:13;10.30;;;4.57;;
68886;SDS011;55925;51.764;6.402;2023-10-19T10:33:52;8.23;;;2.92;;
68886;SDS011;55925;51.764;6.402;2023-10-19T10:36:21;9.57;;;3.38;;
68886;SDS011;55925;51.764;6.402;2023-10-19T10:38:50;9.07;;;3.20;;
68886;SDS011;55925;51.764;6.402;2023-10-19T10:41:20;7.72;;;2.80;;
68886;SDS011;55925;51.764;6.402;2023-10-19T10:43:50;7.45;;;3.08;;
68886;SDS011;55925;51.764;6.402;2023-10-19T10:46:18;7.93;;;2.75;;
68886;SDS011;55925;51.764;6.402;2023-10-19T10:48:44;9.48;;;3.03;;
68886;SDS011;55925;51.764;6.402;2023-10-19T10:51:16;8.30;;;2.65;;
68886;SDS011;55925;51.764;6.402;2023-10-19T10:53:42;8.90;;;2.78;;
68886;SDS011;55925;51.764;6.402;2023-10-19T10:56:09;6.05;;;2.33;;
68886;SDS011;55925;51.764;6.402;2023-10-19T10:58:35;7.63;;;2.67;;
68886;SDS011;55925;51.764;6.402;2023-10-19T11:01:01;8.38;;;2.78;;
68886;SDS011;55925;51.764;6.402;2023-10-19T11:03:27;6.25;;;2.22;;
68886;SDS011;55925;51.764;6.402;2023-10-19T11:05:55;8.40;;;2.65;;
68886;SDS011;55925;51.764;6.402;2023-10-19T11:08:23;6.82;;;2.55;;
68886;SDS011;55925;51.764;6.402;2023-10-19T11:10:49;5.70;;;2.50;;
68886;SDS011;55925;51.764;6.402;2023-10-19T11:13:16;7.25;;;2.50;;
68886;SDS011;55925;51.764;6.402;2023-10-19T11:15:52;8.15;;;2.13;;
68886;SDS011;55925;51.764;6.402;2023-10-19T11:18:34;5.68;;;2.50;;
68886;SDS011;55925;51.764;6.402;2023-10-19T11:21:08;9.23;;;2.50;;
68886;SDS011;55925;51.764;6.402;2023-10-19T11:23:47;8.38;;;2.78;;
68886;SDS011;55925;51.764;6.402;2023-10-19T11:26:15;9.38;;;2.75;;
68886;SDS011;55925;51.764;6.402;2023-10-19T11:28:41;10.93;;;3.55;;
68886;SDS011;55925;51.764;6.402;2023-10-19T11:31:17;9.13;;;3.20;;
68886;SDS011;55925;51.764;6.402;2023-10-19T11:33:45;6.65;;;2.92;;
68886;SDS011;55925;51.764;6.402;2023-10-19T11:36:13;8.73;;;3.10;;
68886;SDS011;55925;51.764;6.402;2023-10-19T11:38:40;6.72;;;2.90;;
68886;SDS011;55925;51.764;6.402;2023-10-19T11:41:06;8.10;;;3.08;;
68886;SDS011;55925;51.764;6.402;2023-10-19T11:43:33;8.43;;;3.00;;
68886;SDS011;55925;51.764;6.402;2023-10-19T11:45:59;7.35;;;2.28;;
68886;SDS011;55925;51.764;6.402;2023-10-19T11:48:25;9.57;;;2.80;;
68886;SDS011;55925;51.764;6.402;2023-10-19T11:50:51;8.25;;;2.20;;
68886;SDS011;55925;51.764;6.402;2023-10-19T11:53:18;7.82;;;2.17;;
68886;SDS011;55925;51.764;6.402;2023-10-19T11:55:44;7.75;;;2.20;;
68886;SDS011;55925;51.764;6.402;2023-10-19T11:58:13;12.13;;;2.47;;
68886;SDS011;55925;51.764;6.402;2023-10-19T12:00:39;6.35;;;1.92;;
68886;SDS011;55925;51.764;6.402;2023-10-19T12:03:08;9.55;;;2.70;;
68886;SDS011;55925;51.764;6.402;2023-10-19T12:05:37;12.20;;;2.25;;
68886;SDS011;55925;51.764;6.402;2023-10-19T12:08:03;6.97;;;2.10;;
68886;SDS011;55925;51.764;6.402;2023-10-19T12:10:29;6.28;;;1.88;;
68886;SDS011;55925;51.764;6.402;2023-10-19T12:13:01;5.97;;;1.90;;
68886;SDS011;55925;51.764;6.402;2023-10-19T12:15:27;8.75;;;2.30;;
68886;SDS011;55925;51.764;6.402;2023-10-19T12:17:53;7.72;;;2.25;;
68886;SDS011;55925;51.764;6.402;2023-10-19T12:20:19;6.45;;;1.90;;
68886;SDS011;55925;51.764;6.402;2023-10-19T12:22:47;7.93;;;2.30;;
68886;SDS011;55925;51.764;6.402;2023-10-19T12:25:13;6.80;;;2.15;;
68886;SDS011;55925;51.764;6.402;2023-10-19T12:27:40;5.75;;;2.40;;
68886;SDS011;55925;51.764;6.402;2023-10-19T12:30:06;5.97;;;1.63;;
68886;SDS011;55925;51.764;6.402;2023-10-19T12:32:44;6.03;;;1.63;;
68886;SDS011;55925;51.764;6.402;2023-10-19T12:35:10;7.47;;;1.85;;
68886;SDS011;55925;51.764;6.402;2023-10-19T12:37:37;6.25;;;1.88;;
68886;SDS011;55925;51.764;6.402;2023-10-19T12:40:14;7.32;;;2.30;;
68886;SDS011;55925;51.764;6.402;2023-10-19T12:42:54;6.78;;;1.70;;
68886;SDS011;55925;51.764;6.402;2023-10-19T12:45:24;6.93;;;1.90;;
68886;SDS011;55925;51.764;6.402;2023-10-19T12:47:53;4.75;;;1.90;;
68886;SDS011;55925;51.764;6.402;2023-10-19T12:50:19;5.97;;;2.47;;
68886;SDS011;55925;51.764;6.402;2023-10-19T12:52:51;7.03;;;2.33;;
68886;SDS011;55925;51.764;6.402;2023-10-19T12:55:18;6.57;;;1.95;;
68886;SDS011;55925;51.764;6.402;2023-10-19T12:57:44;7.20;;;1.88;;
68886;SDS011;55925;51.764;6.402;2023-10-19T13:00:10;9.48;;;2.20;;
68886;SDS011;55925;51.764;6.402;2023-10-19T13:02:49;8.45;;;2.20;;
68886;SDS011;55925;51.764;6.402;2023-10-19T13:05:16;5.55;;;1.90;;
68886;SDS011;55925;51.764;6.402;2023-10-19T13:07:44;7.32;;;2.40;;
68886;SDS011;55925;51.764;6.402;2023-10-19T13:10:10;8.35;;;2.53;;
68886;SDS011;55925;51.764;6.402;2023-10-19T13:12:36;7.35;;;2.42;;
68886;SDS011;55925;51.764;6.402;2023-10-19T13:15:03;7.47;;;2.33;;
68886;SDS011;55925;51.764;6.402;2023-10-19T13:17:37;8.93;;;2.05;;
68886;SDS011;55925;51.764;6.402;2023-10-19T13:20:03;8.30;;;2.15;;
68886;SDS011;55925;51.764;6.402;2023-10-19T13:22:41;6.80;;;2.15;;
68886;SDS011;55925;51.764;6.402;2023-10-19T13:25:07;8.55;;;2.53;;
68886;SDS011;55925;51.764;6.402;2023-10-19T13:27:42;8.65;;;2.50;;
68886;SDS011;55925;51.764;6.402;2023-10-19T13:30:09;12.73;;;4.63;;
68886;SDS011;55925;51.764;6.402;2023-10-19T13:32:39;10.00;;;3.70;;
68886;SDS011;55925;51.764;6.402;2023-10-19T13:35:07;9.65;;;2.72;;
68886;SDS011;55925;51.764;6.402;2023-10-19T13:37:33;9.10;;;3.25;;
68886;SDS011;55925;51.764;6.402;2023-10-19T13:39:59;8.38;;;4.07;;
68886;SDS011;55925;51.764;6.402;2023-10-19T13:42:25;9.60;;;3.05;;
68886;SDS011;55925;51.764;6.402;2023-10-19T13:44:51;9.60;;;4.40;;
68886;SDS011;55925;51.764;6.402;2023-10-19T13:47:18;10.02;;;4.78;;
68886;SDS011;55925;51.764;6.402;2023-10-19T13:49:44;10.45;;;3.22;;
68886;SDS011;55925;51.764;6.402;2023-10-19T13:52:11;26.08;;;4.07;;
68886;SDS011;55925;51.764;6.402;2023-10-19T13:54:40;8.40;;;3.35;;
68886;SDS011;55925;51.764;6.402;2023-10-19T13:57:06;10.70;;;3.50;;
68886;SDS011;55925;51.764;6.402;2023-10-19T13:59:32;11.27;;;3.47;;
68886;SDS011;55925;51.764;6.402;2023-10-19T14:01:58;12.50;;;3.75;;
68886;SDS011;55925;51.764;6.402;2023-10-19T14:04:24;9.15;;;3.38;;
68886;SDS011;55925;51.764;6.402;2023-10-19T14:06:51;8.48;;;2.90;;
68886;SDS011;55925;51.764;6.402;2023-10-19T14:09:18;10.77;;;3.85;;
68886;SDS011;55925;51.764;6.402;2023-10-19T14:11:44;10.95;;;3.75;;
68886;SDS011;55925;51.764;6.402;2023-10-19T14:14:11;11.32;;;4.30;;
68886;SDS011;55925;51.764;6.402;2023-10-19T14:16:37;12.38;;;4.25;;
68886;SDS011;55925;51.764;6.402;2023-10-19T14:19:04;11.80;;;5.45;;
68886;SDS011;55925;51.764;6.402;2023-10-19T14:21:30;9.65;;;3.22;;
68886;SDS011;55925;51.764;6.402;2023-10-19T14:23:57;12.15;;;3.65;;
68886;SDS011;55925;51.764;6.402;2023-10-19T14:26:23;13.32;;;3.60;;
68886;SDS011;55925;51.764;6.402;2023-10-19T14:28:49;7.15;;;3.58;;
68886;SDS011;55925;51.764;6.402;2023-10-19T14:31:15;10.85;;;3.80;;
68886;SDS011;55925;51.764;6.402;2023-10-19T14:33:41;8.70;;;3.55;;
68886;SDS011;55925;51.764;6.402;2023-10-19T14:36:08;7.32;;;2.83;;
68886;SDS011;55925;51.764;6.402;2023-10-19T14:38:34;12.18;;;4.32;;
68886;SDS011;55925;51.764;6.402;2023-10-19T14:41:01;20.58;;;13.18;;
68886;SDS011;55925;51.764;6.402;2023-10-19T14:43:27;12.50;;;7.00;;
68886;SDS011;55925;51.764;6.402;2023-10-19T14:45:57;11.10;;;3.17;;
68886;SDS011;55925;51.764;6.402;2023-10-19T14:48:23;11.27;;;3.15;;
68886;SDS011;55925;51.764;6.402;2023-10-19T14:50:49;10.80;;;3.25;;
68886;SDS011;55925;51.764;6.402;2023-10-19T14:53:16;6.85;;;3.28;;
68886;SDS011;55925;51.764;6.402;2023-10-19T14:55:43;8.95;;;3.53;;
68886;SDS011;55925;51.764;6.402;2023-10-19T14:58:12;11.82;;;5.88;;
68886;SDS011;55925;51.764;6.402;2023-10-19T15:00:38;11.13;;;3.20;;